createdAt,value
2018-06-04T06:08:05.476Z,94838.48
2018-06-04T06:10:33.777Z,94838.01
2018-06-04T06:13:02.411Z,94840.70
2018-06-04T06:15:31.024Z,94839.13
2018-06-04T06:17:59.704Z,94838.30
2018-06-04T06:20:28.148Z,94835.16
2018-06-04T06:22:56.966Z,94843.08
2018-06-04T06:25:25.796Z,94833.65
2018-06-04T06:27:54.749Z,94831.03
2018-06-04T06:30:23.342Z,94825.96
2018-06-04T06:32:52.517Z,94827.36
2018-06-04T06:35:20.783Z,94820.91
2018-06-04T06:37:49.584Z,94814.88
2018-06-04T06:40:17.881Z,94819.59
2018-06-04T06:42:46.659Z,94821.48
2018-06-04T06:45:15.546Z,94813.80
2018-06-04T06:47:44.657Z,94813.67
2018-06-04T06:50:13.660Z,94816.92
2018-06-04T06:52:42.850Z,94813.88
2018-06-04T06:55:12.044Z,94809.69
2018-06-04T06:57:41.028Z,94808.03
2018-06-04T07:00:10.524Z,94799.45
2018-06-04T07:02:39.455Z,94803.96
2018-06-04T07:05:08.049Z,94802.47
2018-06-04T07:07:36.667Z,94807.98
2018-06-04T07:10:05.309Z,94796.36
2018-06-04T07:12:34.654Z,94794.98
2018-06-04T07:15:03.527Z,94794.91
2018-06-04T07:17:32.769Z,94788.88
2018-06-04T07:20:01.446Z,94789.28
2018-06-04T07:22:30.303Z,94793.40
2018-06-04T07:24:58.940Z,94797.70
2018-06-04T07:27:27.823Z,94788.33
2018-06-04T07:29:56.616Z,94788.86
2018-06-04T07:32:25.445Z,94785.13
2018-06-04T07:34:55.032Z,94790.74
2018-06-04T07:37:23.894Z,94784.61
2018-06-04T07:39:51.991Z,94786.34
2018-06-04T07:42:21.292Z,94772.76
2018-06-04T07:44:50.698Z,94765.05
2018-06-04T07:47:19.284Z,94773.88
2018-06-04T07:49:48.787Z,94773.98
2018-06-04T07:52:17.536Z,94775.41
2018-06-04T07:54:46.157Z,94783.73
2018-06-04T07:57:14.808Z,94776.83
2018-06-04T07:59:44.147Z,94778.68
2018-06-04T08:02:12.986Z,94772.47
2018-06-04T08:04:42.623Z,94770.35
2018-06-04T08:07:12.941Z,94766.25
2018-06-04T08:09:43.224Z,94771.29
2018-06-04T08:12:12.252Z,94771.66
2018-06-04T08:14:40.998Z,94759.80
2018-06-04T08:17:09.442Z,94762.39
2018-06-04T08:19:37.626Z,94765.20
2018-06-04T08:22:05.730Z,94764.65
2018-06-04T08:24:34.285Z,94756.92
2018-06-04T08:27:02.846Z,94757.23
2018-06-04T08:29:32.958Z,94757.10
2018-06-04T08:32:02.231Z,94756.85
2018-06-04T08:34:29.535Z,94755.50
2018-06-04T08:36:57.606Z,94742.87
2018-06-04T08:39:27.380Z,94736.53
2018-06-04T08:41:55.984Z,94732.94
2018-06-04T08:44:25.525Z,94729.71
2018-06-04T08:46:54.295Z,94731.43
2018-06-04T08:49:22.817Z,94731.35
2018-06-04T08:51:51.540Z,94737.66
2018-06-04T08:54:21.049Z,94738.31
2018-06-04T08:56:50.537Z,94727.52
2018-06-04T08:59:19.156Z,94723.88
2018-06-04T09:01:48.041Z,94721.02
2018-06-04T09:04:16.933Z,94726.40
2018-06-04T09:06:46.443Z,94731.42
2018-06-04T09:09:14.771Z,94721.47
2018-06-04T09:11:43.477Z,94724.40
2018-06-04T09:14:12.413Z,94713.08
2018-06-04T09:16:41.550Z,94722.26
2018-06-04T09:19:10.227Z,94705.11
2018-06-04T09:21:38.867Z,94705.52
2018-06-04T09:24:08.296Z,94692.42
2018-06-04T09:26:37.975Z,94698.42
2018-06-04T09:29:06.593Z,94687.90
2018-06-04T09:31:34.990Z,94687.34
2018-06-04T09:34:03.650Z,94682.72
2018-06-04T09:36:32.493Z,94683.22
2018-06-04T09:39:02.292Z,94686.45
2018-06-04T09:41:31.028Z,94683.20
2018-06-04T09:44:00.399Z,94679.48
2018-06-04T09:46:29.479Z,94682.09
2018-06-04T09:48:59.505Z,94676.09
2018-06-04T09:51:28.936Z,94668.84
2018-06-04T09:53:58.359Z,94665.08
2018-06-04T09:56:28.682Z,94671.38
2018-06-04T09:58:57.320Z,94669.00
2018-06-04T10:01:26.018Z,94662.50
2018-06-04T10:03:54.883Z,94661.20
2018-06-04T10:06:23.594Z,94668.28
2018-06-04T10:08:52.545Z,94667.64
2018-06-04T10:11:21.755Z,94673.45
2018-06-04T10:13:50.660Z,94661.75
2018-06-04T10:16:19.573Z,94669.25
2018-06-04T10:18:48.261Z,94672.05
2018-06-04T10:21:16.807Z,94660.38
2018-06-04T10:23:45.264Z,94658.05
2018-06-04T10:26:13.721Z,94662.56
2018-06-04T10:28:42.221Z,94655.23
2018-06-04T10:31:10.664Z,94657.22
2018-06-04T10:33:39.204Z,94648.72
2018-06-04T10:36:07.638Z,94639.49
2018-06-04T10:38:36.145Z,94642.75
2018-06-04T10:41:04.745Z,94647.38
2018-06-04T10:43:33.414Z,94647.77
2018-06-04T10:46:02.355Z,94653.03
2018-06-04T10:48:30.687Z,94665.44
2018-06-04T10:51:00.265Z,94667.53
2018-06-04T10:53:28.794Z,94664.11
2018-06-04T10:55:57.740Z,94660.02
2018-06-04T10:58:26.561Z,94662.31
2018-06-04T11:00:55.463Z,94649.79
2018-06-04T11:03:23.848Z,94643.77
2018-06-04T11:05:52.521Z,94624.52
2018-06-04T11:08:21.034Z,94649.00
2018-06-04T11:10:50.140Z,94634.12
2018-06-04T11:13:19.048Z,94633.06
2018-06-04T11:15:47.802Z,94638.87
2018-06-04T11:18:16.554Z,94630.51
2018-06-04T11:20:45.608Z,94625.31
2018-06-04T11:23:14.286Z,94623.14
2018-06-04T11:25:43.268Z,94624.70
2018-06-04T11:28:11.940Z,94614.59
2018-06-04T11:30:40.840Z,94607.78
2018-06-04T11:33:09.390Z,94609.98
2018-06-04T11:35:37.984Z,94603.32
2018-06-04T11:38:06.645Z,94598.91
2018-06-04T11:40:35.522Z,94591.58
2018-06-04T11:43:04.369Z,94595.31
2018-06-04T11:45:32.929Z,94595.14
2018-06-04T11:48:01.661Z,94592.86
2018-06-04T11:50:30.451Z,94595.07
2018-06-04T11:52:59.052Z,94585.87
2018-06-04T11:55:27.653Z,94584.02
2018-06-04T11:57:55.671Z,94572.03
2018-06-04T12:00:24.215Z,94570.95
2018-06-04T12:02:52.816Z,94570.51
2018-06-04T12:05:21.646Z,94569.78
2018-06-04T12:07:50.379Z,94566.54
2018-06-04T12:10:18.704Z,94561.78
2018-06-04T12:12:47.425Z,94555.24
2018-06-04T12:15:15.529Z,94553.20
2018-06-04T12:17:43.807Z,94545.63
2018-06-04T12:20:12.572Z,94542.17
2018-06-04T12:22:41.265Z,94541.70
2018-06-04T12:25:09.592Z,94527.58
2018-06-04T12:27:37.568Z,94533.44
2018-06-04T12:30:05.857Z,94535.06
2018-06-04T12:32:34.566Z,94525.12
2018-06-04T12:35:02.873Z,94526.23
2018-06-04T12:37:31.307Z,94515.61
2018-06-04T12:39:59.709Z,94507.77
2018-06-04T12:42:28.535Z,94509.22
2018-06-04T12:44:56.825Z,94500.73
2018-06-04T12:47:25.498Z,94489.27
2018-06-04T12:49:54.274Z,94491.37
2018-06-04T12:52:22.777Z,94489.97
2018-06-04T12:54:51.438Z,94490.80
2018-06-04T12:57:19.851Z,94488.52
2018-06-04T12:59:48.427Z,94484.38
2018-06-04T13:02:16.713Z,94487.47
2018-06-04T13:04:45.684Z,94479.61
2018-06-04T13:07:15.403Z,94476.05
2018-06-04T13:09:43.800Z,94478.20
2018-06-04T13:12:12.489Z,94476.55
2018-06-04T13:14:40.963Z,94478.77
2018-06-04T13:17:09.956Z,94471.95
2018-06-04T13:19:38.754Z,94479.91
2018-06-04T13:22:07.510Z,94477.31
2018-06-04T13:24:35.821Z,94482.14
2018-06-04T13:27:04.314Z,94477.64
2018-06-04T13:29:32.605Z,94472.06
2018-06-04T13:32:01.253Z,94466.92
2018-06-04T13:34:29.735Z,94469.86
2018-06-04T13:36:58.271Z,94462.94
2018-06-04T13:39:27.014Z,94457.18
2018-06-04T13:41:55.998Z,94455.02
2018-06-04T13:44:25.147Z,94460.56
2018-06-04T13:46:53.613Z,94453.94
2018-06-04T13:49:22.465Z,94449.75
2018-06-04T13:51:50.838Z,94448.01
2018-06-04T13:54:19.522Z,94446.59
2018-06-04T13:56:47.907Z,94444.55
2018-06-04T13:59:16.303Z,94441.76
